sensor_id;sensor_type;location;lat;lon;timestamp;pressure;altitude;pressure_sealevel;temperature;humidity
50364;BME280;36272;59.400;17.982;2022-09-09T00:12:55;102113.09;;;13.03;67.70
50364;BME280;36272;59.400;17.982;2022-09-09T00:23:30;102106.09;;;13.09;67.92
50364;BME280;36272;59.400;17.982;2022-09-09T00:28:39;102111.88;;;13.13;67.86
50364;BME280;36272;59.400;17.982;2022-09-09T00:33:43;102117.28;;;13.19;67.74
50364;BME280;36272;59.400;17.982;2022-09-09T00:38:49;102104.88;;;13.18;67.84
50364;BME280;36272;59.400;17.982;2022-09-09T00:43:57;102100.53;;;13.24;68.11
50364;BME280;36272;59.400;17.982;2022-09-09T01:16:48;102082.56;;;13.51;67.73
50364;BME280;36272;59.400;17.982;2022-09-09T01:22:06;102073.25;;;13.54;67.44
50364;BME280;36272;59.400;17.982;2022-09-09T01:27:10;102077.78;;;13.60;67.12
50364;BME280;36272;59.400;17.982;2022-09-09T01:32:47;102064.56;;;13.65;66.85
50364;BME280;36272;59.400;17.982;2022-09-09T01:37:50;102078.84;;;13.66;66.50
50364;BME280;36272;59.400;17.982;2022-09-09T01:42:52;102074.88;;;13.68;66.61
50364;BME280;36272;59.400;17.982;2022-09-09T01:47:54;102066.19;;;13.73;66.48
50364;BME280;36272;59.400;17.982;2022-09-09T01:52:59;102060.59;;;13.75;66.75
50364;BME280;36272;59.400;17.982;2022-09-09T02:03:26;102051.28;;;13.84;66.50
50364;BME280;36272;59.400;17.982;2022-09-09T02:09:16;102049.81;;;13.88;66.35
50364;BME280;36272;59.400;17.982;2022-09-09T02:14:01;102037.19;;;13.89;66.28
50364;BME280;36272;59.400;17.982;2022-09-09T02:24:15;102030.13;;;13.94;66.13
50364;BME280;36272;59.400;17.982;2022-09-09T02:29:28;102024.75;;;13.94;66.50
50364;BME280;36272;59.400;17.982;2022-09-09T02:34:35;102025.53;;;14.02;66.29
50364;BME280;36272;59.400;17.982;2022-09-09T02:39:38;102038.56;;;14.05;66.35
50364;BME280;36272;59.400;17.982;2022-09-09T02:44:41;102023.03;;;14.07;66.72
50364;BME280;36272;59.400;17.982;2022-09-09T02:49:46;102039.19;;;14.07;66.71
50364;BME280;36272;59.400;17.982;2022-09-09T02:54:55;102021.59;;;14.11;66.78
50364;BME280;36272;59.400;17.982;2022-09-09T03:00:01;102021.16;;;14.14;67.06
50364;BME280;36272;59.400;17.982;2022-09-09T03:05:05;102005.41;;;14.18;67.19
50364;BME280;36272;59.400;17.982;2022-09-09T03:10:08;102010.56;;;14.19;67.16
50364;BME280;36272;59.400;17.982;2022-09-09T03:15:09;102017.38;;;14.22;67.11
50364;BME280;36272;59.400;17.982;2022-09-09T03:20:12;102009.72;;;14.25;67.25
50364;BME280;36272;59.400;17.982;2022-09-09T03:25:13;102009.50;;;14.27;67.39
50364;BME280;36272;59.400;17.982;2022-09-09T03:30:15;101995.59;;;14.30;67.60
50364;BME280;36272;59.400;17.982;2022-09-09T03:35:17;101991.69;;;14.33;67.58
50364;BME280;36272;59.400;17.982;2022-09-09T03:40:19;102000.56;;;14.33;67.85
50364;BME280;36272;59.400;17.982;2022-09-09T03:45:21;101995.19;;;14.33;67.99
50364;BME280;36272;59.400;17.982;2022-09-09T03:50:23;101989.59;;;14.35;68.28
50364;BME280;36272;59.400;17.982;2022-09-09T03:55:25;101991.22;;;14.36;68.13
50364;BME280;36272;59.400;17.982;2022-09-09T04:00:26;101992.06;;;14.36;68.24
50364;BME280;36272;59.400;17.982;2022-09-09T04:05:28;101986.44;;;14.38;68.34
50364;BME280;36272;59.400;17.982;2022-09-09T04:10:30;101976.28;;;14.40;68.71
50364;BME280;36272;59.400;17.982;2022-09-09T04:15:32;101992.00;;;14.43;68.86
50364;BME280;36272;59.400;17.982;2022-09-09T04:20:34;101980.00;;;14.46;68.97
50364;BME280;36272;59.400;17.982;2022-09-09T04:25:36;101993.41;;;14.52;68.87
50364;BME280;36272;59.400;17.982;2022-09-09T04:30:39;101986.09;;;14.60;68.75
50364;BME280;36272;59.400;17.982;2022-09-09T04:35:46;101959.97;;;14.67;68.77
50364;BME280;36272;59.400;17.982;2022-09-09T04:40:50;101968.19;;;14.79;68.51
50364;BME280;36272;59.400;17.982;2022-09-09T04:45:53;101977.66;;;14.81;68.64
50364;BME280;36272;59.400;17.982;2022-09-09T04:56:17;101970.97;;;14.91;67.93
50364;BME280;36272;59.400;17.982;2022-09-09T05:01:21;101972.19;;;14.95;67.93
50364;BME280;36272;59.400;17.982;2022-09-09T05:06:23;101987.03;;;15.04;67.75
50364;BME280;36272;59.400;17.982;2022-09-09T05:11:27;101973.09;;;15.07;66.89
50364;BME280;36272;59.400;17.982;2022-09-09T05:16:29;101990.25;;;15.13;66.97
50364;BME280;36272;59.400;17.982;2022-09-09T05:21:31;101987.28;;;15.21;66.91
50364;BME280;36272;59.400;17.982;2022-09-09T05:26:33;101993.63;;;15.27;66.46
50364;BME280;36272;59.400;17.982;2022-09-09T05:31:34;101996.50;;;15.32;66.24
50364;BME280;36272;59.400;17.982;2022-09-09T05:36:36;102002.19;;;15.42;65.75
50364;BME280;36272;59.400;17.982;2022-09-09T05:41:37;101986.53;;;15.51;64.79
50364;BME280;36272;59.400;17.982;2022-09-09T05:46:39;101991.88;;;15.58;63.80
50364;BME280;36272;59.400;17.982;2022-09-09T05:51:41;101998.84;;;15.66;63.27
50364;BME280;36272;59.400;17.982;2022-09-09T05:56:44;101993.44;;;15.66;62.29
50364;BME280;36272;59.400;17.982;2022-09-09T06:01:46;101999.44;;;15.68;62.09
50364;BME280;36272;59.400;17.982;2022-09-09T06:06:48;101998.16;;;15.70;61.48
50364;BME280;36272;59.400;17.982;2022-09-09T06:11:50;102009.53;;;15.72;60.85
50364;BME280;36272;59.400;17.982;2022-09-09T06:16:51;102005.34;;;15.76;59.67
50364;BME280;36272;59.400;17.982;2022-09-09T06:21:53;102002.19;;;15.80;59.94
50364;BME280;36272;59.400;17.982;2022-09-09T06:26:55;101994.88;;;15.87;59.69
50364;BME280;36272;59.400;17.982;2022-09-09T06:31:58;102002.28;;;15.91;58.74
50364;BME280;36272;59.400;17.982;2022-09-09T06:37:00;102006.28;;;15.89;58.85
50364;BME280;36272;59.400;17.982;2022-09-09T06:42:02;102001.72;;;15.89;58.60
50364;BME280;36272;59.400;17.982;2022-09-09T06:47:03;102004.91;;;15.98;58.02
50364;BME280;36272;59.400;17.982;2022-09-09T06:52:05;102007.16;;;16.01;57.74
50364;BME280;36272;59.400;17.982;2022-09-09T06:57:07;102011.66;;;16.08;57.89
50364;BME280;36272;59.400;17.982;2022-09-09T07:02:14;101994.53;;;16.14;57.36
50364;BME280;36272;59.400;17.982;2022-09-09T07:07:16;102029.16;;;16.17;57.17
50364;BME280;36272;59.400;17.982;2022-09-09T07:12:18;102006.28;;;16.19;56.77
50364;BME280;36272;59.400;17.982;2022-09-09T07:17:20;102018.03;;;16.25;56.41
50364;BME280;36272;59.400;17.982;2022-09-09T07:22:22;102014.44;;;16.31;56.88
50364;BME280;36272;59.400;17.982;2022-09-09T07:27:24;102017.41;;;16.42;56.21
50364;BME280;36272;59.400;17.982;2022-09-09T07:32:25;102021.50;;;16.44;55.93
50364;BME280;36272;59.400;17.982;2022-09-09T07:37:27;102022.69;;;16.48;55.46
50364;BME280;36272;59.400;17.982;2022-09-09T07:42:29;102017.69;;;16.52;54.85
50364;BME280;36272;59.400;17.982;2022-09-09T07:47:30;102030.63;;;16.62;54.67
50364;BME280;36272;59.400;17.982;2022-09-09T07:52:33;102009.59;;;16.64;53.57
50364;BME280;36272;59.400;17.982;2022-09-09T07:57:35;102018.66;;;16.70;53.23
50364;BME280;36272;59.400;17.982;2022-09-09T08:02:37;102028.66;;;16.81;53.62
50364;BME280;36272;59.400;17.982;2022-09-09T08:07:39;102030.19;;;16.89;53.89
50364;BME280;36272;59.400;17.982;2022-09-09T08:12:40;102039.47;;;16.93;54.64
50364;BME280;36272;59.400;17.982;2022-09-09T08:17:42;102045.16;;;17.03;54.51
50364;BME280;36272;59.400;17.982;2022-09-09T08:22:44;102044.59;;;17.13;54.52
50364;BME280;36272;59.400;17.982;2022-09-09T08:27:45;102059.41;;;17.22;54.57
50364;BME280;36272;59.400;17.982;2022-09-09T08:32:48;102042.59;;;17.32;54.38
50364;BME280;36272;59.400;17.982;2022-09-09T08:37:55;102038.13;;;17.38;54.55
50364;BME280;36272;59.400;17.982;2022-09-09T08:42:58;102032.34;;;17.46;54.46
50364;BME280;36272;59.400;17.982;2022-09-09T08:53:28;102027.88;;;17.64;53.24
50364;BME280;36272;59.400;17.982;2022-09-09T08:58:33;102030.78;;;17.74;53.34
50364;BME280;36272;59.400;17.982;2022-09-09T09:03:53;102026.06;;;17.69;53.55
50364;BME280;36272;59.400;17.982;2022-09-09T09:14:11;102026.78;;;17.77;54.02
50364;BME280;36272;59.400;17.982;2022-09-09T09:19:17;102033.34;;;17.81;53.23
50364;BME280;36272;59.400;17.982;2022-09-09T09:24:23;102042.41;;;17.87;52.45
50364;BME280;36272;59.400;17.982;2022-09-09T09:29:26;102033.91;;;17.95;52.76
50364;BME280;36272;59.400;17.982;2022-09-09T09:34:28;102028.34;;;18.13;52.90
50364;BME280;36272;59.400;17.982;2022-09-09T09:39:32;102027.97;;;18.22;52.74
50364;BME280;36272;59.400;17.982;2022-09-09T09:44:41;102024.63;;;18.32;52.81
50364;BME280;36272;59.400;17.982;2022-09-09T09:49:56;102012.66;;;18.45;52.96
50364;BME280;36272;59.400;17.982;2022-09-09T09:55:03;102009.13;;;18.44;51.73
50364;BME280;36272;59.400;17.982;2022-09-09T10:00:23;102001.00;;;18.44;51.69
50364;BME280;36272;59.400;17.982;2022-09-09T10:05:27;101997.06;;;18.52;51.57
50364;BME280;36272;59.400;17.982;2022-09-09T10:10:57;101993.72;;;18.62;51.60
50364;BME280;36272;59.400;17.982;2022-09-09T10:21:44;101996.00;;;18.87;51.36
50364;BME280;36272;59.400;17.982;2022-09-09T10:26:55;101979.94;;;18.97;51.67
50364;BME280;36272;59.400;17.982;2022-09-09T10:32:24;101983.81;;;19.01;50.28
50364;BME280;36272;59.400;17.982;2022-09-09T10:42:59;101999.47;;;18.82;50.01
50364;BME280;36272;59.400;17.982;2022-09-09T11:03:53;101992.50;;;19.04;49.81
50364;BME280;36272;59.400;17.982;2022-09-09T11:08:57;101984.22;;;19.32;50.57
50364;BME280;36272;59.400;17.982;2022-09-09T11:14:12;101984.16;;;19.72;50.64
50364;BME280;36272;59.400;17.982;2022-09-09T11:19:44;101977.84;;;20.11;50.46
50364;BME280;36272;59.400;17.982;2022-09-09T11:24:51;101981.25;;;21.36;48.84
50364;BME280;36272;59.400;17.982;2022-09-09T11:30:05;101967.94;;;22.61;46.08
50364;BME280;36272;59.400;17.982;2022-09-09T11:40:35;101984.81;;;24.25;42.80
50364;BME280;36272;59.400;17.982;2022-09-09T11:45:38;101981.47;;;24.68;41.97
50364;BME280;36272;59.400;17.982;2022-09-09T11:50:41;101967.06;;;24.87;41.81
50364;BME280;36272;59.400;17.982;2022-09-09T11:55:43;101978.06;;;25.06;42.18
50364;BME280;36272;59.400;17.982;2022-09-09T12:00:47;101968.88;;;25.45;41.56
50364;BME280;36272;59.400;17.982;2022-09-09T12:05:50;101966.53;;;25.96;41.24
50364;BME280;36272;59.400;17.982;2022-09-09T12:10:55;101960.16;;;26.39;40.55
50364;BME280;36272;59.400;17.982;2022-09-09T12:15:59;101955.22;;;26.69;40.58
50364;BME280;36272;59.400;17.982;2022-09-09T12:27:06;101948.78;;;27.07;39.67
50364;BME280;36272;59.400;17.982;2022-09-09T12:32:11;101949.53;;;26.65;40.07
50364;BME280;36272;59.400;17.982;2022-09-09T12:42:22;101958.66;;;26.13;40.11
50364;BME280;36272;59.400;17.982;2022-09-09T12:47:32;101944.00;;;26.51;40.55
50364;BME280;36272;59.400;17.982;2022-09-09T12:52:37;101943.81;;;27.09;39.69
50364;BME280;36272;59.400;17.982;2022-09-09T12:57:40;101946.75;;;27.12;39.44
50364;BME280;36272;59.400;17.982;2022-09-09T13:02:56;101919.72;;;26.92;40.40
50364;BME280;36272;59.400;17.982;2022-09-09T13:08:06;101934.34;;;26.87;39.45
50364;BME280;36272;59.400;17.982;2022-09-09T13:13:21;101938.97;;;26.72;39.71
50364;BME280;36272;59.400;17.982;2022-09-09T13:18:27;101937.78;;;27.21;40.11
50364;BME280;36272;59.400;17.982;2022-09-09T13:23:31;101921.00;;;27.36;39.04
50364;BME280;36272;59.400;17.982;2022-09-09T13:28:34;101941.56;;;26.97;39.47
50364;BME280;36272;59.400;17.982;2022-09-09T13:33:37;101921.03;;;26.94;39.33
50364;BME280;36272;59.400;17.982;2022-09-09T13:43:53;101937.59;;;25.90;40.32
50364;BME280;36272;59.400;17.982;2022-09-09T13:48:58;101913.41;;;26.11;40.30
50364;BME280;36272;59.400;17.982;2022-09-09T13:54:01;101916.56;;;26.37;41.31
50364;BME280;36272;59.400;17.982;2022-09-09T13:59:04;101909.53;;;26.92;40.54
50364;BME280;36272;59.400;17.982;2022-09-09T14:04:06;101933.03;;;26.37;40.00
50364;BME280;36272;59.400;17.982;2022-09-09T14:09:13;101919.72;;;26.11;40.63
50364;BME280;36272;59.400;17.982;2022-09-09T14:14:18;101911.97;;;26.19;40.03
50364;BME280;36272;59.400;17.982;2022-09-09T14:19:20;101919.19;;;25.76;40.63
50364;BME280;36272;59.400;17.982;2022-09-09T14:24:22;101913.53;;;26.39;40.02
50364;BME280;36272;59.400;17.982;2022-09-09T14:29:26;101915.53;;;26.94;39.08
50364;BME280;36272;59.400;17.982;2022-09-09T14:34:28;101902.59;;;26.81;39.42
50364;BME280;36272;59.400;17.982;2022-09-09T14:39:32;101906.06;;;27.14;39.44
50364;BME280;36272;59.400;17.982;2022-09-09T14:44:34;101908.25;;;26.90;39.41
50364;BME280;36272;59.400;17.982;2022-09-09T14:49:36;101904.06;;;26.12;39.78
50364;BME280;36272;59.400;17.982;2022-09-09T14:54:38;101915.44;;;25.29;40.24
50364;BME280;36272;59.400;17.982;2022-09-09T14:59:40;101899.56;;;24.53;40.69
50364;BME280;36272;59.400;17.982;2022-09-09T15:04:41;101901.03;;;24.10;41.51
50364;BME280;36272;59.400;17.982;2022-09-09T15:09:43;101898.72;;;23.88;41.66
50364;BME280;36272;59.400;17.982;2022-09-09T15:14:45;101894.34;;;23.87;41.82
50364;BME280;36272;59.400;17.982;2022-09-09T15:19:47;101900.66;;;23.37;42.54
50364;BME280;36272;59.400;17.982;2022-09-09T15:24:48;101903.56;;;22.75;42.88
50364;BME280;36272;59.400;17.982;2022-09-09T15:34:52;101905.78;;;21.95;43.67
50364;BME280;36272;59.400;17.982;2022-09-09T15:39:54;101902.94;;;21.54;44.19
50364;BME280;36272;59.400;17.982;2022-09-09T15:44:56;101909.59;;;21.10;44.85
50364;BME280;36272;59.400;17.982;2022-09-09T15:49:58;101907.25;;;20.81;45.53
50364;BME280;36272;59.400;17.982;2022-09-09T15:55:00;101918.66;;;20.45;46.08
50364;BME280;36272;59.400;17.982;2022-09-09T16:00:03;101896.22;;;20.23;46.41
50364;BME280;36272;59.400;17.982;2022-09-09T16:05:05;101894.91;;;19.98;46.86
50364;BME280;36272;59.400;17.982;2022-09-09T16:10:08;101892.53;;;19.79;47.19
50364;BME280;36272;59.400;17.982;2022-09-09T16:15:10;101905.94;;;19.64;47.94
50364;BME280;36272;59.400;17.982;2022-09-09T16:20:12;101902.84;;;19.55;48.19
50364;BME280;36272;59.400;17.982;2022-09-09T16:25:13;101896.44;;;19.39;48.37
50364;BME280;36272;59.400;17.982;2022-09-09T16:30:15;101888.38;;;19.22;48.78
50364;BME280;36272;59.400;17.982;2022-09-09T16:35:17;101894.56;;;19.00;49.42
50364;BME280;36272;59.400;17.982;2022-09-09T16:40:20;101896.00;;;18.85;49.90
50364;BME280;36272;59.400;17.982;2022-09-09T16:45:22;101900.28;;;18.81;50.92
50364;BME280;36272;59.400;17.982;2022-09-09T16:50:24;101889.19;;;18.66;51.10
50364;BME280;36272;59.400;17.982;2022-09-09T16:55:26;101897.75;;;18.57;51.32
50364;BME280;36272;59.400;17.982;2022-09-09T17:00:28;101900.81;;;18.44;51.39
50364;BME280;36272;59.400;17.982;2022-09-09T17:05:29;101894.38;;;18.33;51.37
50364;BME280;36272;59.400;17.982;2022-09-09T17:10:40;101879.53;;;18.19;51.53
50364;BME280;36272;59.400;17.982;2022-09-09T17:15:42;101890.69;;;18.05;51.96
50364;BME280;36272;59.400;17.982;2022-09-09T17:20:44;101889.06;;;17.92;52.23
50364;BME280;36272;59.400;17.982;2022-09-09T17:25:56;101876.41;;;17.81;52.62
50364;BME280;36272;59.400;17.982;2022-09-09T17:30:58;101884.91;;;17.73;52.92
50364;BME280;36272;59.400;17.982;2022-09-09T17:36:18;101878.88;;;17.65;52.96
50364;BME280;36272;59.400;17.982;2022-09-09T17:41:42;101876.19;;;17.53;53.40
50364;BME280;36272;59.400;17.982;2022-09-09T17:46:45;101890.06;;;17.45;53.90
50364;BME280;36272;59.400;17.982;2022-09-09T17:51:47;101902.47;;;17.29;54.28
50364;BME280;36272;59.400;17.982;2022-09-09T17:56:48;101911.44;;;17.18;54.51
50364;BME280;36272;59.400;17.982;2022-09-09T18:01:50;101904.75;;;17.08;54.75
50364;BME280;36272;59.400;17.982;2022-09-09T18:06:53;101912.41;;;17.00;54.71
50364;BME280;36272;59.400;17.982;2022-09-09T18:11:56;101891.59;;;16.88;55.16
50364;BME280;36272;59.400;17.982;2022-09-09T18:17:00;101887.84;;;16.77;55.32
50364;BME280;36272;59.400;17.982;2022-09-09T18:22:05;101897.94;;;16.70;55.31
50364;BME280;36272;59.400;17.982;2022-09-09T18:27:07;101905.78;;;16.60;55.74
50364;BME280;36272;59.400;17.982;2022-09-09T18:32:08;101903.44;;;16.52;55.98
50364;BME280;36272;59.400;17.982;2022-09-09T18:37:10;101906.59;;;16.37;56.08
50364;BME280;36272;59.400;17.982;2022-09-09T18:42:12;101899.88;;;16.27;56.52
50364;BME280;36272;59.400;17.982;2022-09-09T18:47:14;101897.75;;;16.17;56.78
50364;BME280;36272;59.400;17.982;2022-09-09T18:52:16;101898.78;;;16.04;57.23
50364;BME280;36272;59.400;17.982;2022-09-09T18:57:18;101888.53;;;15.95;57.26
50364;BME280;36272;59.400;17.982;2022-09-09T19:02:20;101890.94;;;15.84;57.52
50364;BME280;36272;59.400;17.982;2022-09-09T19:07:22;101894.16;;;15.74;57.93
50364;BME280;36272;59.400;17.982;2022-09-09T19:12:23;101899.50;;;15.63;58.17
50364;BME280;36272;59.400;17.982;2022-09-09T19:17:37;101897.34;;;15.53;58.39
50364;BME280;36272;59.400;17.982;2022-09-09T19:22:42;101874.44;;;15.43;58.96
50364;BME280;36272;59.400;17.982;2022-09-09T19:27:43;101889.88;;;15.36;59.09
50364;BME280;36272;59.400;17.982;2022-09-09T19:32:48;101881.50;;;15.26;59.42
50364;BME280;36272;59.400;17.982;2022-09-09T19:37:59;101874.19;;;15.14;59.74
50364;BME280;36272;59.400;17.982;2022-09-09T19:43:08;101866.47;;;14.99;60.27
50364;BME280;36272;59.400;17.982;2022-09-09T19:48:31;101868.63;;;14.91;60.16
50364;BME280;36272;59.400;17.982;2022-09-09T19:53:57;101874.72;;;14.79;60.53
50364;BME280;36272;59.400;17.982;2022-09-09T19:59:02;101866.53;;;14.74;59.02
50364;BME280;36272;59.400;17.982;2022-09-09T20:04:05;101868.69;;;14.58;60.26
50364;BME280;36272;59.400;17.982;2022-09-09T20:09:09;101873.31;;;14.51;61.04
50364;BME280;36272;59.400;17.982;2022-09-09T20:14:11;101884.78;;;14.40;61.46
50364;BME280;36272;59.400;17.982;2022-09-09T20:19:35;101870.56;;;14.33;61.69
50364;BME280;36272;59.400;17.982;2022-09-09T20:24:36;101895.50;;;14.21;61.93
50364;BME280;36272;59.400;17.982;2022-09-09T20:29:44;101865.13;;;14.14;62.65
50364;BME280;36272;59.400;17.982;2022-09-09T20:35:22;101869.88;;;14.12;62.54
50364;BME280;36272;59.400;17.982;2022-09-09T20:40:28;101879.25;;;14.03;63.05
50364;BME280;36272;59.400;17.982;2022-09-09T20:46:02;101879.09;;;13.97;63.08
50364;BME280;36272;59.400;17.982;2022-09-09T20:51:31;101876.06;;;13.87;63.63
50364;BME280;36272;59.400;17.982;2022-09-09T20:56:44;101881.06;;;13.77;63.94
50364;BME280;36272;59.400;17.982;2022-09-09T21:01:46;101872.22;;;13.70;63.84
50364;BME280;36272;59.400;17.982;2022-09-09T21:06:49;101872.88;;;13.65;64.34
50364;BME280;36272;59.400;17.982;2022-09-09T21:11:52;101876.19;;;13.60;64.61
50364;BME280;36272;59.400;17.982;2022-09-09T21:16:53;101892.75;;;13.57;64.94
50364;BME280;36272;59.400;17.982;2022-09-09T21:21:55;101885.53;;;13.51;65.07
50364;BME280;36272;59.400;17.982;2022-09-09T21:26:57;101885.13;;;13.47;65.24
50364;BME280;36272;59.400;17.982;2022-09-09T21:32:01;101884.94;;;13.42;65.34
50364;BME280;36272;59.400;17.982;2022-09-09T21:37:03;101881.66;;;13.33;65.68
50364;BME280;36272;59.400;17.982;2022-09-09T21:42:05;101877.13;;;13.27;66.01
50364;BME280;36272;59.400;17.982;2022-09-09T21:47:07;101875.28;;;13.21;66.30
50364;BME280;36272;59.400;17.982;2022-09-09T21:52:08;101871.59;;;13.15;66.46
50364;BME280;36272;59.400;17.982;2022-09-09T21:57:10;101877.56;;;13.11;66.42
50364;BME280;36272;59.400;17.982;2022-09-09T22:02:14;101878.63;;;13.03;66.49
50364;BME280;36272;59.400;17.982;2022-09-09T22:07:16;101875.13;;;12.96;67.02
50364;BME280;36272;59.400;17.982;2022-09-09T22:12:21;101862.34;;;12.91;67.74
50364;BME280;36272;59.400;17.982;2022-09-09T22:17:23;101869.34;;;12.85;67.43
50364;BME280;36272;59.400;17.982;2022-09-09T22:22:25;101870.63;;;12.83;67.61
50364;BME280;36272;59.400;17.982;2022-09-09T22:27:26;101868.16;;;12.74;67.41
50364;BME280;36272;59.400;17.982;2022-09-09T22:32:28;101865.47;;;12.68;67.86
50364;BME280;36272;59.400;17.982;2022-09-09T22:37:30;101875.78;;;12.64;68.43
50364;BME280;36272;59.400;17.982;2022-09-09T22:42:31;101860.72;;;12.63;68.54
50364;BME280;36272;59.400;17.982;2022-09-09T22:47:33;101866.72;;;12.58;68.45
50364;BME280;36272;59.400;17.982;2022-09-09T22:52:35;101867.34;;;12.54;68.88
50364;BME280;36272;59.400;17.982;2022-09-09T22:57:36;101870.63;;;12.49;68.92
50364;BME280;36272;59.400;17.982;2022-09-09T23:02:38;101861.97;;;12.47;69.08
50364;BME280;36272;59.400;17.982;2022-09-09T23:07:40;101853.94;;;12.40;69.28
50364;BME280;36272;59.400;17.982;2022-09-09T23:12:43;101850.00;;;12.36;69.23
50364;BME280;36272;59.400;17.982;2022-09-09T23:17:45;101854.53;;;12.29;69.36
50364;BME280;36272;59.400;17.982;2022-09-09T23:22:46;101848.97;;;12.24;69.26
50364;BME280;36272;59.400;17.982;2022-09-09T23:27:48;101845.44;;;12.16;69.44
50364;BME280;36272;59.400;17.982;2022-09-09T23:32:50;101840.72;;;12.12;69.68
50364;BME280;36272;59.400;17.982;2022-09-09T23:37:52;101834.31;;;12.06;69.55
50364;BME280;36272;59.400;17.982;2022-09-09T23:42:53;101834.72;;;12.03;70.07
50364;BME280;36272;59.400;17.982;2022-09-09T23:47:55;101831.63;;;11.99;69.92
50364;BME280;36272;59.400;17.982;2022-09-09T23:52:57;101827.66;;;11.95;69.87
50364;BME280;36272;59.400;17.982;2022-09-09T23:57:59;101821.47;;;11.95;69.47
